Time;durP1;ratioP1;P1;durP2;ratioP2;P2;SDS_P1;SDS_P2;PMS_P1;PMS_P2;Temp;Humidity;BMP_temperature;BMP_pressure;BME280_temperature;BME280_humidity;BME280_pressure;Samples;Min_cycle;Max_cycle;Signal;HPM_P1;HPM_P2
2022/03/12 00:01:18;;;;;;;8.13;5.23;;;;;;;;;;4962066;28;20197;-53
2022/03/12 00:03:46;;;;;;;7.10;5.70;;;;;;;;;;4962686;28;20783;-53
2022/03/12 00:06:12;;;;;;;6.83;5.93;;;;;;;;;;4968075;28;20208;-53
2022/03/12 00:08:46;;;;;;;6.70;5.17;;;;;;;;;;4960907;28;20246;-53
2022/03/12 00:11:16;;;;;;;7.17;5.77;;;;;;;;;;4968393;28;20756;-54
2022/03/12 00:13:42;;;;;;;9.20;5.80;;;;;;;;;;4967504;28;20776;-54
2022/03/12 00:16:12;;;;;;;8.27;5.70;;;;;;;;;;4964116;28;20243;-54
2022/03/12 00:18:38;;;;;;;8.57;6.20;;;;;;;;;;4965468;28;20193;-54
2022/03/12 00:21:04;;;;;;;7.03;5.53;;;;;;;;;;4950547;28;20562;-55
2022/03/12 00:23:30;;;;;;;6.97;5.63;;;;;;;;;;4962597;28;20351;-53
2022/03/12 00:25:57;;;;;;;7.37;5.93;;;;;;;;;;4966881;28;20229;-53
2022/03/12 00:28:23;;;;;;;6.00;5.30;;;;;;;;;;4961482;28;20783;-54
2022/03/12 00:30:50;;;;;;;7.97;5.67;;;;;;;;;;4958540;28;20272;-53
2022/03/12 00:33:17;;;;;;;9.50;5.93;;;;;;;;;;4965952;28;20209;-54
2022/03/12 00:35:44;;;;;;;6.40;5.80;;;;;;;;;;4964445;28;20272;-53
2022/03/12 00:38:10;;;;;;;7.50;5.60;;;;;;;;;;4981519;28;20186;-54
2022/03/12 00:40:37;;;;;;;9.30;6.20;;;;;;;;;;4970462;28;20899;-54
2022/03/12 00:43:04;;;;;;;5.87;5.27;;;;;;;;;;4966725;28;20235;-53
2022/03/12 00:45:30;;;;;;;6.97;5.60;;;;;;;;;;4969442;28;20196;-53
2022/03/12 00:47:56;;;;;;;6.47;5.53;;;;;;;;;;4961156;28;21189;-53
2022/03/12 00:50:21;;;;;;;7.67;6.00;;;;;;;;;;4967024;28;20193;-53
2022/03/12 00:52:47;;;;;;;9.13;6.50;;;;;;;;;;4963400;28;20217;-54
2022/03/12 00:55:13;;;;;;;9.13;6.20;;;;;;;;;;4965953;28;20702;-53
2022/03/12 00:57:39;;;;;;;8.43;5.50;;;;;;;;;;4973375;28;20753;-54
2022/03/12 01:00:06;;;;;;;6.67;5.83;;;;;;;;;;4976389;28;20617;-53
2022/03/12 01:02:32;;;;;;;10.00;5.53;;;;;;;;;;4975592;28;20193;-53
2022/03/12 01:04:58;;;;;;;7.23;5.87;;;;;;;;;;4979871;28;20318;-53
2022/03/12 01:07:24;;;;;;;8.03;6.27;;;;;;;;;;4970231;28;20275;-54
2022/03/12 01:09:49;;;;;;;7.30;5.97;;;;;;;;;;4958785;28;20322;-53
2022/03/12 01:12:15;;;;;;;10.60;5.97;;;;;;;;;;4961446;28;20213;-53
2022/03/12 01:14:41;;;;;;;9.83;5.93;;;;;;;;;;4961544;28;20212;-53
2022/03/12 01:17:08;;;;;;;7.50;5.50;;;;;;;;;;4961920;28;20728;-53
2022/03/12 01:19:38;;;;;;;8.17;6.00;;;;;;;;;;4960248;28;20252;-54
2022/03/12 01:22:04;;;;;;;9.00;6.37;;;;;;;;;;4959053;28;20188;-54
2022/03/12 01:24:30;;;;;;;6.50;5.77;;;;;;;;;;4964309;28;20232;-53
2022/03/12 01:26:56;;;;;;;8.63;5.60;;;;;;;;;;4963419;28;20223;-54
2022/03/12 01:29:23;;;;;;;9.30;5.97;;;;;;;;;;4973302;28;20200;-53
2022/03/12 01:31:49;;;;;;;6.73;5.80;;;;;;;;;;4964053;28;20963;-54
2022/03/12 01:34:15;;;;;;;6.97;5.83;;;;;;;;;;4951457;28;20227;-53
2022/03/12 01:36:41;;;;;;;8.33;6.20;;;;;;;;;;4951501;28;20223;-53
2022/03/12 01:39:08;;;;;;;9.63;6.20;;;;;;;;;;4956923;28;21440;-53
2022/03/12 01:41:34;;;;;;;7.40;6.17;;;;;;;;;;4959762;28;20638;-53
2022/03/12 01:44:01;;;;;;;7.73;6.50;;;;;;;;;;4957748;28;20892;-53
2022/03/12 01:46:32;;;;;;;9.23;5.97;;;;;;;;;;4955977;28;20355;-54
2022/03/12 01:48:59;;;;;;;6.57;5.73;;;;;;;;;;4956195;28;20781;-53
2022/03/12 01:51:25;;;;;;;7.87;6.23;;;;;;;;;;4958580;28;20201;-54
2022/03/12 01:53:51;;;;;;;7.27;5.90;;;;;;;;;;4947167;28;20646;-54
2022/03/12 01:56:17;;;;;;;7.87;6.47;;;;;;;;;;4961310;28;20189;-53
2022/03/12 01:58:45;;;;;;;9.43;6.07;;;;;;;;;;4964784;28;20306;-53
2022/03/12 02:01:11;;;;;;;7.33;5.80;;;;;;;;;;4960573;28;21364;-53
2022/03/12 02:03:37;;;;;;;7.17;5.50;;;;;;;;;;4958245;28;20302;-53
2022/03/12 02:06:03;;;;;;;7.97;6.33;;;;;;;;;;4962033;28;20753;-53
2022/03/12 02:08:29;;;;;;;8.47;6.60;;;;;;;;;;4971783;28;20212;-53
2022/03/12 02:10:57;;;;;;;9.90;6.60;;;;;;;;;;4968409;28;20458;-54
2022/03/12 02:13:24;;;;;;;7.07;5.90;;;;;;;;;;4963836;28;20228;-53
2022/03/12 02:15:50;;;;;;;7.33;6.37;;;;;;;;;;4965755;28;20730;-53
2022/03/12 02:18:16;;;;;;;9.93;6.60;;;;;;;;;;4959717;28;20192;-54
2022/03/12 02:20:42;;;;;;;7.93;6.17;;;;;;;;;;4954083;28;20542;-54
2022/03/12 02:23:08;;;;;;;12.43;6.70;;;;;;;;;;4959546;28;20327;-54
2022/03/12 02:25:34;;;;;;;7.87;6.57;;;;;;;;;;4965209;28;20273;-53
2022/03/12 02:28:00;;;;;;;9.50;6.03;;;;;;;;;;4973557;28;20248;-54
2022/03/12 02:30:28;;;;;;;7.37;5.80;;;;;;;;;;4986972;28;20307;-54
2022/03/12 02:33:01;;;;;;;9.00;6.57;;;;;;;;;;4979355;28;20251;-53
2022/03/12 02:35:34;;;;;;;8.53;6.23;;;;;;;;;;4980756;28;20681;-53
2022/03/12 02:38:00;;;;;;;9.60;6.40;;;;;;;;;;4992210;28;20181;-53
2022/03/12 02:40:26;;;;;;;8.93;6.23;;;;;;;;;;4990978;28;20191;-54
2022/03/12 02:42:53;;;;;;;7.93;6.60;;;;;;;;;;4976373;28;20674;-53
2022/03/12 02:45:23;;;;;;;9.83;6.93;;;;;;;;;;4978207;28;20242;-54
2022/03/12 02:47:50;;;;;;;7.93;6.67;;;;;;;;;;4976587;28;20228;-53
2022/03/12 02:50:16;;;;;;;7.50;6.57;;;;;;;;;;4978761;28;20533;-53
2022/03/12 02:52:44;;;;;;;10.77;7.33;;;;;;;;;;4977464;28;20651;-54
2022/03/12 02:55:13;;;;;;;8.57;6.63;;;;;;;;;;4981127;28;20216;-53
2022/03/12 02:57:40;;;;;;;9.03;6.50;;;;;;;;;;4988654;28;20253;-53
2022/03/12 03:00:08;;;;;;;7.43;6.73;;;;;;;;;;4986154;28;20204;-53
2022/03/12 03:02:40;;;;;;;7.80;7.00;;;;;;;;;;4986785;28;20571;-53
2022/03/12 03:07:57;;;;;;;10.03;7.20;;;;;;;;;;4990768;28;20212;-53
2022/03/12 03:10:31;;;;;;;7.73;6.70;;;;;;;;;;4987243;28;20643;-53
2022/03/12 03:12:58;;;;;;;8.83;7.00;;;;;;;;;;4985692;28;20736;-53
2022/03/12 03:15:25;;;;;;;10.57;7.00;;;;;;;;;;4979782;28;20193;-53
2022/03/12 03:17:51;;;;;;;8.80;7.30;;;;;;;;;;4978044;28;20274;-54
2022/03/12 03:20:17;;;;;;;7.83;6.50;;;;;;;;;;4981579;28;20197;-53
2022/03/12 03:22:43;;;;;;;8.77;6.60;;;;;;;;;;4977278;28;20732;-53
2022/03/12 03:25:09;;;;;;;9.53;6.97;;;;;;;;;;4983326;28;20484;-53
2022/03/12 03:27:35;;;;;;;7.63;6.73;;;;;;;;;;4984172;28;20658;-53
2022/03/12 03:30:01;;;;;;;8.77;7.07;;;;;;;;;;4984505;28;20200;-53
2022/03/12 03:32:27;;;;;;;9.83;6.77;;;;;;;;;;4978473;28;20255;-53
2022/03/12 03:34:53;;;;;;;8.37;7.17;;;;;;;;;;4978846;28;20792;-53
2022/03/12 03:37:19;;;;;;;8.40;7.00;;;;;;;;;;4983183;28;21399;-53
2022/03/12 03:39:45;;;;;;;11.77;6.97;;;;;;;;;;4981191;28;20246;-53
2022/03/12 03:42:12;;;;;;;9.17;6.80;;;;;;;;;;4975636;28;20201;-53
2022/03/12 03:44:38;;;;;;;8.33;6.60;;;;;;;;;;4981239;28;20208;-53
2022/03/12 03:47:04;;;;;;;10.37;6.80;;;;;;;;;;4977900;28;20188;-53
2022/03/12 03:49:30;;;;;;;9.17;6.80;;;;;;;;;;4978466;28;20809;-53
2022/03/12 03:51:58;;;;;;;8.13;6.33;;;;;;;;;;4977666;28;20264;-53
2022/03/12 03:54:25;;;;;;;7.43;6.63;;;;;;;;;;4976649;28;20903;-53
2022/03/12 03:56:51;;;;;;;9.47;7.10;;;;;;;;;;4983190;28;21224;-53
2022/03/12 03:59:17;;;;;;;8.23;7.03;;;;;;;;;;4987334;28;20239;-54
2022/03/12 04:01:45;;;;;;;7.97;6.83;;;;;;;;;;4989963;28;20200;-53
2022/03/12 04:04:14;;;;;;;8.57;6.77;;;;;;;;;;4982737;28;20231;-53
2022/03/12 04:06:40;;;;;;;9.93;6.53;;;;;;;;;;4987368;28;20193;-53
2022/03/12 04:09:07;;;;;;;7.63;6.67;;;;;;;;;;4987734;28;20620;-54
2022/03/12 04:11:34;;;;;;;10.23;7.60;;;;;;;;;;4986995;28;20626;-54
2022/03/12 04:14:00;;;;;;;9.23;6.97;;;;;;;;;;4989016;28;20847;-53
2022/03/12 04:16:27;;;;;;;8.60;6.93;;;;;;;;;;4987281;28;20185;-54
2022/03/12 04:18:55;;;;;;;9.80;7.03;;;;;;;;;;4987366;28;20284;-53
2022/03/12 04:21:21;;;;;;;8.80;7.47;;;;;;;;;;4984243;28;21417;-53
2022/03/12 04:23:49;;;;;;;8.70;6.97;;;;;;;;;;4980503;28;20217;-53
2022/03/12 04:26:15;;;;;;;8.77;7.10;;;;;;;;;;4984503;28;20239;-53
2022/03/12 04:28:41;;;;;;;11.20;7.40;;;;;;;;;;4989327;28;20196;-53
2022/03/12 04:31:07;;;;;;;11.07;7.37;;;;;;;;;;4987405;28;20208;-53
2022/03/12 04:33:34;;;;;;;7.33;6.50;;;;;;;;;;4985777;28;20219;-53
2022/03/12 04:36:00;;;;;;;12.17;7.83;;;;;;;;;;4984643;28;20186;-53
2022/03/12 04:38:27;;;;;;;8.00;7.20;;;;;;;;;;4991870;28;23555;-53
2022/03/12 04:40:55;;;;;;;9.10;7.60;;;;;;;;;;5001166;28;20549;-54
2022/03/12 04:43:22;;;;;;;9.50;6.90;;;;;;;;;;4994435;28;20205;-53
2022/03/12 04:45:49;;;;;;;7.77;6.87;;;;;;;;;;4989488;28;20196;-53
2022/03/12 04:48:16;;;;;;;9.50;7.10;;;;;;;;;;4983818;28;21814;-53
2022/03/12 04:50:42;;;;;;;10.80;8.00;;;;;;;;;;4982016;28;20606;-54
2022/03/12 04:53:08;;;;;;;9.07;7.20;;;;;;;;;;4982982;28;20244;-53
2022/03/12 04:55:36;;;;;;;10.97;7.17;;;;;;;;;;4977819;28;20270;-53
2022/03/12 04:58:02;;;;;;;7.40;6.60;;;;;;;;;;4981209;28;20799;-53
2022/03/12 05:00:32;;;;;;;10.60;7.43;;;;;;;;;;4984083;28;20531;-54
2022/03/12 05:03:06;;;;;;;9.40;7.53;;;;;;;;;;4986914;28;20201;-53
2022/03/12 05:05:32;;;;;;;8.93;7.50;;;;;;;;;;4981393;28;20311;-54
2022/03/12 05:08:00;;;;;;;8.10;7.10;;;;;;;;;;4977821;28;20488;-53
2022/03/12 05:10:27;;;;;;;8.83;6.70;;;;;;;;;;4979342;28;20595;-53
2022/03/12 05:12:58;;;;;;;10.57;7.10;;;;;;;;;;4973181;28;20208;-53
2022/03/12 05:15:24;;;;;;;9.20;7.00;;;;;;;;;;4980631;28;20983;-53
2022/03/12 05:17:50;;;;;;;10.90;7.53;;;;;;;;;;4975668;28;20730;-54
2022/03/12 05:20:26;;;;;;;8.93;6.80;;;;;;;;;;4977584;28;20772;-53
2022/03/12 05:22:52;;;;;;;10.00;6.77;;;;;;;;;;4985007;28;21379;-53
2022/03/12 05:25:19;;;;;;;8.77;6.73;;;;;;;;;;4980162;28;20263;-54
2022/03/12 05:27:46;;;;;;;9.53;7.33;;;;;;;;;;4982297;28;20671;-53
2022/03/12 05:30:12;;;;;;;8.03;7.17;;;;;;;;;;4984537;28;20250;-54
2022/03/12 05:32:38;;;;;;;12.03;7.43;;;;;;;;;;4977968;28;20238;-53
2022/03/12 05:35:05;;;;;;;9.93;7.33;;;;;;;;;;4980005;28;20222;-53
2022/03/12 05:37:31;;;;;;;10.63;7.23;;;;;;;;;;4987641;28;20231;-53
2022/03/12 05:39:58;;;;;;;8.93;6.77;;;;;;;;;;4985109;28;20865;-53
2022/03/12 05:42:24;;;;;;;9.63;7.37;;;;;;;;;;4983705;28;20377;-53
2022/03/12 05:44:50;;;;;;;10.13;6.87;;;;;;;;;;4981803;28;20236;-53
2022/03/12 05:47:17;;;;;;;8.97;7.20;;;;;;;;;;4983047;28;20211;-53
2022/03/12 05:49:43;;;;;;;9.53;7.43;;;;;;;;;;4983579;28;20193;-53
2022/03/12 05:52:10;;;;;;;10.97;7.10;;;;;;;;;;4990981;28;20793;-53
2022/03/12 05:54:37;;;;;;;8.67;7.50;;;;;;;;;;4982682;28;20189;-53
2022/03/12 05:57:03;;;;;;;12.23;7.80;;;;;;;;;;4983066;28;20199;-53
2022/03/12 05:59:29;;;;;;;9.70;7.13;;;;;;;;;;4981369;28;20223;-53
2022/03/12 06:01:55;;;;;;;9.03;7.33;;;;;;;;;;4986038;28;20198;-53
2022/03/12 06:04:27;;;;;;;10.30;7.50;;;;;;;;;;4984995;28;20238;-53
2022/03/12 06:06:54;;;;;;;9.33;7.50;;;;;;;;;;4981304;28;20184;-53
2022/03/12 06:09:20;;;;;;;9.77;7.47;;;;;;;;;;4986196;28;20195;-53
2022/03/12 06:11:47;;;;;;;9.17;7.10;;;;;;;;;;4984492;28;20198;-53
2022/03/12 06:14:16;;;;;;;9.63;7.17;;;;;;;;;;4979538;28;20244;-53
2022/03/12 06:16:52;;;;;;;8.73;7.20;;;;;;;;;;4990962;28;20220;-53
2022/03/12 06:19:21;;;;;;;11.20;7.53;;;;;;;;;;4993180;28;20282;-53
2022/03/12 06:21:47;;;;;;;11.30;7.10;;;;;;;;;;4992867;28;20803;-53
2022/03/12 06:24:14;;;;;;;9.50;7.27;;;;;;;;;;4982227;28;20594;-53
2022/03/12 06:26:41;;;;;;;9.10;7.37;;;;;;;;;;4999386;28;20811;-53
2022/03/12 06:29:13;;;;;;;10.87;7.73;;;;;;;;;;4998840;28;20188;-53
2022/03/12 06:31:42;;;;;;;9.43;7.83;;;;;;;;;;4995514;28;20203;-52
2022/03/12 06:34:09;;;;;;;9.93;7.30;;;;;;;;;;4991810;28;20286;-53
2022/03/12 06:36:37;;;;;;;15.60;7.27;;;;;;;;;;5001847;28;20281;-53
2022/03/12 06:39:03;;;;;;;9.23;7.77;;;;;;;;;;5008062;28;20238;-53
2022/03/12 06:41:38;;;;;;;10.43;7.57;;;;;;;;;;5005601;28;20267;-53
2022/03/12 06:44:04;;;;;;;12.20;7.33;;;;;;;;;;4989717;28;20189;-54
2022/03/12 06:46:30;;;;;;;10.20;7.47;;;;;;;;;;4992176;28;20198;-53
2022/03/12 06:48:57;;;;;;;11.27;7.73;;;;;;;;;;4992279;28;20199;-53
2022/03/12 06:51:24;;;;;;;9.23;7.37;;;;;;;;;;4987414;28;20225;-53
2022/03/12 06:53:49;;;;;;;11.50;7.30;;;;;;;;;;4989565;28;20219;-53
2022/03/12 06:56:15;;;;;;;9.63;8.23;;;;;;;;;;4993601;28;20277;-53
2022/03/12 06:58:41;;;;;;;11.67;7.50;;;;;;;;;;4997725;28;20197;-53
2022/03/12 07:01:07;;;;;;;12.23;7.43;;;;;;;;;;4994316;28;20199;-53
2022/03/12 07:03:33;;;;;;;9.20;7.13;;;;;;;;;;4990777;28;20197;-53
2022/03/12 07:06:00;;;;;;;9.23;7.30;;;;;;;;;;4990791;28;20220;-53
2022/03/12 07:08:25;;;;;;;9.87;7.63;;;;;;;;;;4991164;28;20455;-54
2022/03/12 07:10:52;;;;;;;8.97;7.67;;;;;;;;;;4983035;28;20576;-53
2022/03/12 07:13:18;;;;;;;8.07;7.23;;;;;;;;;;4977606;28;21677;-53
2022/03/12 07:15:44;;;;;;;10.50;8.20;;;;;;;;;;4979302;28;20216;-53
2022/03/12 07:18:10;;;;;;;10.60;7.93;;;;;;;;;;4981090;28;20561;-53
2022/03/12 07:20:36;;;;;;;9.23;7.53;;;;;;;;;;4984917;28;20243;-53
2022/03/12 07:23:02;;;;;;;9.87;7.30;;;;;;;;;;4989377;28;20197;-52
2022/03/12 07:25:28;;;;;;;10.43;7.13;;;;;;;;;;4991100;28;20238;-53
2022/03/12 07:27:55;;;;;;;9.33;6.83;;;;;;;;;;4981552;28;20196;-53
2022/03/12 07:30:21;;;;;;;8.27;7.00;;;;;;;;;;4991429;28;20674;-53
2022/03/12 07:32:47;;;;;;;7.80;6.77;;;;;;;;;;4991340;28;20213;-52
2022/03/12 07:35:13;;;;;;;9.83;7.37;;;;;;;;;;5000652;28;20193;-53
2022/03/12 07:37:40;;;;;;;9.07;7.13;;;;;;;;;;5001805;28;20231;-53
2022/03/12 07:40:06;;;;;;;9.60;7.50;;;;;;;;;;4990976;28;20279;-53
2022/03/12 07:42:32;;;;;;;9.53;7.30;;;;;;;;;;4989709;28;20205;-53
2022/03/12 07:44:58;;;;;;;14.83;7.70;;;;;;;;;;4995216;28;20662;-52
2022/03/12 07:47:24;;;;;;;11.00;7.37;;;;;;;;;;4995948;28;20588;-52
2022/03/12 07:49:50;;;;;;;9.00;7.47;;;;;;;;;;4987675;28;20196;-53
2022/03/12 07:52:16;;;;;;;9.90;7.33;;;;;;;;;;4998615;28;20736;-52
2022/03/12 07:54:42;;;;;;;8.80;7.20;;;;;;;;;;4989930;28;20189;-52
2022/03/12 07:57:08;;;;;;;9.80;7.53;;;;;;;;;;4985905;28;20534;-53
2022/03/12 07:59:35;;;;;;;7.97;7.00;;;;;;;;;;4983312;28;20263;-53
2022/03/12 08:02:02;;;;;;;8.40;7.00;;;;;;;;;;4984427;28;20283;-53
2022/03/12 08:04:30;;;;;;;9.20;7.70;;;;;;;;;;4990321;28;20233;-52
2022/03/12 08:07:00;;;;;;;9.60;7.70;;;;;;;;;;4984170;28;20193;-53
2022/03/12 08:09:26;;;;;;;10.80;7.80;;;;;;;;;;4991428;28;20247;-53
2022/03/12 08:11:52;;;;;;;10.37;7.37;;;;;;;;;;4986929;28;20870;-53
2022/03/12 08:14:20;;;;;;;9.77;7.60;;;;;;;;;;4992067;28;20267;-53
2022/03/12 08:16:48;;;;;;;12.00;7.60;;;;;;;;;;4988806;28;21276;-52
2022/03/12 08:19:14;;;;;;;9.10;8.03;;;;;;;;;;4988857;28;20232;-53
2022/03/12 08:21:40;;;;;;;12.40;8.43;;;;;;;;;;4984086;28;20188;-53
2022/03/12 08:24:06;;;;;;;10.10;8.17;;;;;;;;;;4987007;28;20234;-53
2022/03/12 08:26:35;;;;;;;9.33;7.77;;;;;;;;;;4990684;28;21711;-53
2022/03/12 08:29:01;;;;;;;8.70;7.67;;;;;;;;;;4982224;28;20757;-53
2022/03/12 08:31:27;;;;;;;9.03;7.77;;;;;;;;;;4995434;28;20707;-53
2022/03/12 08:33:53;;;;;;;9.80;7.97;;;;;;;;;;5001666;28;20213;-53
2022/03/12 08:36:19;;;;;;;10.27;7.70;;;;;;;;;;4998374;28;20200;-53
2022/03/12 08:38:45;;;;;;;9.03;7.57;;;;;;;;;;4998897;28;20715;-53
2022/03/12 08:41:11;;;;;;;33.17;7.13;;;;;;;;;;5005848;28;20780;-57
2022/03/12 08:43:37;;;;;;;7.93;6.90;;;;;;;;;;5002430;28;20243;-55
2022/03/12 08:46:05;;;;;;;7.77;6.00;;;;;;;;;;4989435;28;20216;-56
2022/03/12 08:48:31;;;;;;;8.17;5.80;;;;;;;;;;4990788;28;20262;-56
2022/03/12 08:50:57;;;;;;;7.30;5.40;;;;;;;;;;5003485;28;20725;-52
2022/03/12 08:53:23;;;;;;;6.33;5.70;;;;;;;;;;4999610;28;20221;-53
2022/03/12 08:55:49;;;;;;;7.50;5.40;;;;;;;;;;4994122;28;20655;-54
2022/03/12 08:58:15;;;;;;;7.13;5.43;;;;;;;;;;4989213;28;20275;-53
2022/03/12 09:00:42;;;;;;;7.33;5.60;;;;;;;;;;4995087;28;20196;-53
2022/03/12 09:03:09;;;;;;;6.60;5.67;;;;;;;;;;4996775;28;20194;-53
2022/03/12 09:05:35;;;;;;;6.10;5.37;;;;;;;;;;4962764;28;20247;-53
2022/03/12 09:08:01;;;;;;;6.23;5.63;;;;;;;;;;4993654;28;20204;-53
2022/03/12 09:10:27;;;;;;;7.30;5.67;;;;;;;;;;4983878;28;20725;-53
2022/03/12 09:12:53;;;;;;;6.47;5.87;;;;;;;;;;4983498;28;20267;-53
2022/03/12 09:15:20;;;;;;;6.20;5.70;;;;;;;;;;4989182;28;20648;-53
2022/03/12 09:17:46;;;;;;;6.93;5.50;;;;;;;;;;4992712;28;21667;-53
2022/03/12 09:20:12;;;;;;;6.07;5.47;;;;;;;;;;4989013;28;20197;-53
2022/03/12 09:22:39;;;;;;;6.13;5.63;;;;;;;;;;4978621;28;20208;-53
2022/03/12 09:25:08;;;;;;;6.13;5.43;;;;;;;;;;4987388;28;20869;-54
2022/03/12 09:27:34;;;;;;;8.53;5.00;;;;;;;;;;4990261;28;20460;-55
2022/03/12 09:30:00;;;;;;;6.77;4.97;;;;;;;;;;4984987;28;20563;-56
2022/03/12 09:32:26;;;;;;;8.80;5.00;;;;;;;;;;4982569;28;20216;-55
2022/03/12 09:34:52;;;;;;;9.73;4.90;;;;;;;;;;4978117;28;20272;-55
2022/03/12 09:37:18;;;;;;;6.83;5.10;;;;;;;;;;4980399;28;20778;-57
2022/03/12 09:39:44;;;;;;;6.97;4.70;;;;;;;;;;4965785;28;20338;-55
2022/03/12 09:42:10;;;;;;;7.93;5.10;;;;;;;;;;4966158;28;20892;-55
2022/03/12 09:44:36;;;;;;;7.93;4.50;;;;;;;;;;4971908;28;20200;-56
2022/03/12 09:47:02;;;;;;;6.63;4.77;;;;;;;;;;4967166;28;21579;-54
2022/03/12 09:49:28;;;;;;;8.43;4.40;;;;;;;;;;4983791;28;20736;-56
2022/03/12 09:51:57;;;;;;;5.70;4.27;;;;;;;;;;4970782;28;21468;-55
2022/03/12 09:54:23;;;;;;;4.60;3.97;;;;;;;;;;4981532;28;20253;-55
2022/03/12 09:56:49;;;;;;;5.57;4.13;;;;;;;;;;4986870;28;20194;-55
2022/03/12 09:59:15;;;;;;;5.23;3.93;;;;;;;;;;4987125;28;20255;-56
2022/03/12 10:01:41;;;;;;;3.93;3.53;;;;;;;;;;4977753;28;20200;-55
2022/03/12 10:04:07;;;;;;;5.67;3.73;;;;;;;;;;4988691;28;20196;-56
2022/03/12 10:06:33;;;;;;;4.23;3.73;;;;;;;;;;4981545;28;20204;-57
2022/03/12 10:08:59;;;;;;;5.32;3.60;;;;;;;;;;4984485;28;20208;-55
2022/03/12 10:11:25;;;;;;;4.43;3.50;;;;;;;;;;4973012;28;20227;-57
2022/03/12 10:13:51;;;;;;;3.97;3.42;;;;;;;;;;4963872;28;20333;-54
2022/03/12 10:16:18;;;;;;;3.88;3.20;;;;;;;;;;4984555;28;20527;-56
2022/03/12 10:18:45;;;;;;;8.13;3.45;;;;;;;;;;4972429;28;20286;-56
2022/03/12 10:21:10;;;;;;;8.40;3.60;;;;;;;;;;4981272;28;20219;-56
2022/03/12 10:23:36;;;;;;;4.00;3.22;;;;;;;;;;4972681;28;20254;-55
2022/03/12 10:26:02;;;;;;;4.63;3.17;;;;;;;;;;4981928;28;20549;-56
2022/03/12 10:28:34;;;;;;;2.92;2.63;;;;;;;;;;4988638;28;20193;-56
2022/03/12 10:31:03;;;;;;;2.90;2.70;;;;;;;;;;4986223;28;20235;-56
2022/03/12 10:33:30;;;;;;;3.75;3.05;;;;;;;;;;4981091;28;20303;-56
2022/03/12 10:35:56;;;;;;;3.08;2.78;;;;;;;;;;4970337;28;20185;-56
2022/03/12 10:38:25;;;;;;;3.72;2.90;;;;;;;;;;4971264;28;20204;-56
2022/03/12 10:40:51;;;;;;;6.50;2.53;;;;;;;;;;4972346;28;20346;-56
2022/03/12 10:43:17;;;;;;;3.85;2.90;;;;;;;;;;4967029;28;20203;-56
2022/03/12 10:45:46;;;;;;;5.18;2.83;;;;;;;;;;4959306;28;20791;-56
2022/03/12 10:48:12;;;;;;;3.60;2.88;;;;;;;;;;4968218;28;20220;-56
2022/03/12 10:50:39;;;;;;;6.28;2.70;;;;;;;;;;4975045;28;20669;-56
2022/03/12 10:53:06;;;;;;;2.97;2.50;;;;;;;;;;4976401;28;20212;-55
2022/03/12 10:55:33;;;;;;;4.28;2.80;;;;;;;;;;4967740;28;20409;-54
2022/03/12 10:58:18;;;;;;;7.43;3.05;;;;;;;;;;4973749;28;20256;-56
2022/03/12 11:00:54;;;;;;;5.50;3.45;;;;;;;;;;4977763;28;21240;-56
2022/03/12 11:03:20;;;;;;;7.18;3.15;;;;;;;;;;4976192;28;20752;-56
2022/03/12 11:05:47;;;;;;;4.85;2.83;;;;;;;;;;4967198;28;20856;-56
2022/03/12 11:08:17;;;;;;;4.97;3.20;;;;;;;;;;4967303;28;21728;-56
2022/03/12 11:10:50;;;;;;;4.03;3.00;;;;;;;;;;4968253;28;20191;-55
2022/03/12 11:13:27;;;;;;;3.45;2.60;;;;;;;;;;4974331;28;20692;-56
2022/03/12 11:16:06;;;;;;;2.90;2.47;;;;;;;;;;4977152;28;20181;-57
2022/03/12 11:18:32;;;;;;;5.18;2.83;;;;;;;;;;4971014;28;20285;-56
2022/03/12 11:20:58;;;;;;;5.65;2.97;;;;;;;;;;4967630;28;20200;-55
2022/03/12 11:23:27;;;;;;;4.30;3.10;;;;;;;;;;4970391;28;20197;-59
2022/03/12 11:25:58;;;;;;;6.32;2.97;;;;;;;;;;4972794;28;20369;-56
2022/03/12 11:28:24;;;;;;;5.43;2.85;;;;;;;;;;4968662;28;20200;-56
2022/03/12 11:30:53;;;;;;;4.20;2.53;;;;;;;;;;4976665;28;22477;-56
2022/03/12 11:33:20;;;;;;;3.78;2.97;;;;;;;;;;4976335;28;20214;-56
2022/03/12 11:35:46;;;;;;;5.25;2.70;;;;;;;;;;4974789;28;20413;-56
2022/03/12 11:38:17;;;;;;;3.67;2.72;;;;;;;;;;4976542;28;20576;-56
2022/03/12 11:40:44;;;;;;;5.00;2.85;;;;;;;;;;4981154;28;20188;-56
2022/03/12 11:43:22;;;;;;;3.20;2.90;;;;;;;;;;4983922;28;20228;-56
2022/03/12 11:45:48;;;;;;;4.18;2.67;;;;;;;;;;4971417;28;20255;-56
2022/03/12 11:48:14;;;;;;;4.97;2.50;;;;;;;;;;4981270;28;21897;-56
2022/03/12 11:50:40;;;;;;;4.28;2.40;;;;;;;;;;4989877;28;20336;-56
2022/03/12 11:53:06;;;;;;;5.55;2.65;;;;;;;;;;4981819;28;20209;-56
2022/03/12 11:55:33;;;;;;;3.78;2.85;;;;;;;;;;4993533;28;21067;-56
2022/03/12 11:57:59;;;;;;;2.83;2.60;;;;;;;;;;4999343;28;21810;-56
2022/03/12 12:00:25;;;;;;;4.55;2.72;;;;;;;;;;5004848;28;20230;-56
2022/03/12 12:02:53;;;;;;;7.13;2.90;;;;;;;;;;4991360;28;20452;-56
2022/03/12 12:05:19;;;;;;;6.97;2.42;;;;;;;;;;4986452;28;20216;-56
2022/03/12 12:07:47;;;;;;;6.85;2.90;;;;;;;;;;4995670;28;20252;-56
2022/03/12 12:10:13;;;;;;;4.95;2.83;;;;;;;;;;4996502;28;20556;-56
2022/03/12 12:12:39;;;;;;;5.30;2.90;;;;;;;;;;4988079;28;20201;-56
2022/03/12 12:15:06;;;;;;;5.20;2.58;;;;;;;;;;4991436;28;20614;-56
2022/03/12 12:17:32;;;;;;;3.42;2.70;;;;;;;;;;4986294;28;20197;-56
2022/03/12 12:19:59;;;;;;;4.15;2.70;;;;;;;;;;4985706;28;20189;-56
2022/03/12 12:22:25;;;;;;;3.63;2.70;;;;;;;;;;4990070;28;20188;-56
2022/03/12 12:24:55;;;;;;;5.90;3.00;;;;;;;;;;4992917;28;20333;-56
2022/03/12 12:27:23;;;;;;;3.55;2.95;;;;;;;;;;4993133;28;20233;-56
2022/03/12 12:29:54;;;;;;;3.08;2.75;;;;;;;;;;4985573;28;20604;-57
2022/03/12 12:32:21;;;;;;;3.50;2.80;;;;;;;;;;4987601;28;20304;-56
2022/03/12 12:34:59;;;;;;;3.55;3.05;;;;;;;;;;4978225;28;20211;-56
2022/03/12 12:37:44;;;;;;;3.28;2.55;;;;;;;;;;4996254;28;20185;-56
2022/03/12 12:40:14;;;;;;;2.80;2.60;;;;;;;;;;4995063;28;21036;-56
2022/03/12 12:42:40;;;;;;;3.45;2.70;;;;;;;;;;4992636;28;20177;-56
2022/03/12 12:45:08;;;;;;;3.20;2.90;;;;;;;;;;4992009;28;20192;-56
2022/03/12 12:47:34;;;;;;;3.13;2.92;;;;;;;;;;4990303;28;20190;-56
2022/03/12 12:50:00;;;;;;;3.45;3.13;;;;;;;;;;4999700;28;20193;-56
2022/03/12 12:52:26;;;;;;;6.22;3.25;;;;;;;;;;4993184;28;20200;-56
2022/03/12 12:54:59;;;;;;;3.33;3.03;;;;;;;;;;4993888;28;20189;-56
2022/03/12 12:57:44;;;;;;;3.78;2.80;;;;;;;;;;4978895;28;20188;-56
2022/03/12 13:00:37;;;;;;;2.92;2.70;;;;;;;;;;4989405;28;20235;-56
2022/03/12 13:03:08;;;;;;;3.13;2.83;;;;;;;;;;4986499;28;20306;-56
2022/03/12 13:05:53;;;;;;;3.40;3.10;;;;;;;;;;4985858;28;20233;-56
2022/03/12 13:08:24;;;;;;;3.10;2.80;;;;;;;;;;4984076;28;20192;-56
2022/03/12 13:10:53;;;;;;;3.25;2.95;;;;;;;;;;4985895;28;20193;-56
2022/03/12 13:13:20;;;;;;;2.88;2.63;;;;;;;;;;4984647;28;20208;-56
2022/03/12 13:15:47;;;;;;;3.35;2.80;;;;;;;;;;4980602;28;20529;-56
2022/03/12 13:18:19;;;;;;;3.10;2.90;;;;;;;;;;4983889;28;20276;-56
2022/03/12 13:20:45;;;;;;;3.30;3.10;;;;;;;;;;4988248;28;20191;-55
2022/03/12 13:23:12;;;;;;;3.78;2.72;;;;;;;;;;4991401;28;20203;-56
2022/03/12 13:25:51;;;;;;;3.50;2.92;;;;;;;;;;4987519;28;20287;-56
2022/03/12 13:28:36;;;;;;;3.80;2.60;;;;;;;;;;4979854;28;20203;-56
2022/03/12 13:31:21;;;;;;;4.45;2.90;;;;;;;;;;4983989;28;20199;-56
2022/03/12 13:33:47;;;;;;;2.60;2.40;;;;;;;;;;4984576;28;20216;-56
2022/03/12 13:36:20;;;;;;;3.13;2.72;;;;;;;;;;4986446;28;20189;-56
2022/03/12 13:38:46;;;;;;;2.70;2.50;;;;;;;;;;4991064;28;20197;-56
2022/03/12 13:41:13;;;;;;;4.05;2.42;;;;;;;;;;4985891;28;20744;-56
2022/03/12 13:43:39;;;;;;;2.50;2.30;;;;;;;;;;4987658;28;20272;-56
2022/03/12 13:46:05;;;;;;;3.40;2.33;;;;;;;;;;4985884;28;20287;-56
2022/03/12 13:48:31;;;;;;;2.70;2.50;;;;;;;;;;4984544;28;20638;-56
2022/03/12 13:50:57;;;;;;;3.28;2.30;;;;;;;;;;4988139;28;20199;-55
2022/03/12 13:53:29;;;;;;;2.90;2.40;;;;;;;;;;4992923;28;20680;-56
2022/03/12 13:56:05;;;;;;;3.45;2.50;;;;;;;;;;4987516;28;20537;-56
2022/03/12 13:58:31;;;;;;;2.65;2.25;;;;;;;;;;4989431;28;20235;-56
2022/03/12 14:01:00;;;;;;;4.28;2.45;;;;;;;;;;4983783;28;20622;-56
2022/03/12 14:03:29;;;;;;;2.78;2.50;;;;;;;;;;4980844;28;21824;-56
2022/03/12 14:05:56;;;;;;;3.00;2.70;;;;;;;;;;4979158;28;20216;-56
2022/03/12 14:08:25;;;;;;;4.18;2.40;;;;;;;;;;4990735;28;20193;-56
2022/03/12 14:10:52;;;;;;;2.90;2.30;;;;;;;;;;4983235;28;21863;-56
2022/03/12 14:13:20;;;;;;;5.32;2.42;;;;;;;;;;4991841;28;20317;-56
2022/03/12 14:15:46;;;;;;;5.13;2.70;;;;;;;;;;4986796;28;20180;-56
2022/03/12 14:18:15;;;;;;;3.88;2.33;;;;;;;;;;4991836;28;20733;-57
2022/03/12 14:20:42;;;;;;;3.70;2.67;;;;;;;;;;4990391;28;20464;-56
2022/03/12 14:23:08;;;;;;;3.10;2.80;;;;;;;;;;4990256;28;20196;-55
2022/03/12 14:25:35;;;;;;;4.30;2.80;;;;;;;;;;4986116;28;20792;-56
2022/03/12 14:28:03;;;;;;;5.13;3.40;;;;;;;;;;4985737;28;20321;-55
2022/03/12 14:30:29;;;;;;;3.67;3.38;;;;;;;;;;4980027;28;20249;-56
2022/03/12 14:32:56;;;;;;;3.90;3.60;;;;;;;;;;4984591;28;20655;-55
2022/03/12 14:35:22;;;;;;;5.47;3.85;;;;;;;;;;4993627;28;20189;-56
2022/03/12 14:37:48;;;;;;;3.67;3.20;;;;;;;;;;4981146;28;20193;-56
2022/03/12 14:40:17;;;;;;;3.90;3.58;;;;;;;;;;4984202;28;20734;-56
2022/03/12 14:42:45;;;;;;;5.15;3.53;;;;;;;;;;4990482;28;20417;-56
2022/03/12 14:45:12;;;;;;;4.53;3.70;;;;;;;;;;4987654;28;20220;-56